Time;durP1;ratioP1;P1;durP2;ratioP2;P2;SDS_P1;SDS_P2;PMS_P1;PMS_P2;Temp;Humidity;BMP_temperature;BMP_pressure;BME280_temperature;BME280_humidity;BME280_pressure;Samples;Min_cycle;Max_cycle;Signal;HPM_P1;HPM_P2
2021/04/26 00:00:37;;;;;;;4.10;2.58;;;6.00;49.10;;;;;;5008311;28;20022;-68
2021/04/26 00:03:03;;;;;;;8.55;2.40;;;6.00;49.20;;;;;;5013163;28;20437;-68
2021/04/26 00:05:29;;;;;;;3.42;2.33;;;6.00;49.30;;;;;;5011424;28;20128;-67
2021/04/26 00:07:55;;;;;;;6.13;2.50;;;6.00;49.40;;;;;;5011706;28;20073;-68
2021/04/26 00:10:22;;;;;;;6.90;2.85;;;5.90;49.50;;;;;;5013483;28;20110;-67
2021/04/26 00:12:48;;;;;;;3.55;2.53;;;5.90;49.60;;;;;;5011609;28;20029;-68
2021/04/26 00:15:18;;;;;;;6.00;2.80;;;5.90;49.70;;;;;;4999150;28;20113;-67
2021/04/26 00:17:44;;;;;;;6.63;2.80;;;5.90;50.00;;;;;;5004866;28;20038;-68
2021/04/26 00:20:11;;;;;;;6.93;3.35;;;5.90;50.10;;;;;;5003888;28;20045;-67
2021/04/26 00:22:37;;;;;;;5.25;2.97;;;5.90;50.20;;;;;;4997985;28;20379;-67
2021/04/26 00:25:06;;;;;;;7.25;3.15;;;5.90;50.20;;;;;;5006392;28;20064;-68
2021/04/26 00:27:32;;;;;;;8.25;3.47;;;5.90;50.40;;;;;;5009787;28;20119;-67
2021/04/26 00:29:57;;;;;;;4.97;2.72;;;5.90;50.60;;;;;;5002797;28;20026;-68
2021/04/26 00:32:23;;;;;;;2.92;2.58;;;5.90;50.60;;;;;;5003300;28;20022;-67
2021/04/26 00:34:49;;;;;;;5.95;3.40;;;5.90;50.70;;;;;;5010801;28;20040;-67
2021/04/26 00:37:14;;;;;;;3.88;2.92;;;5.90;50.70;;;;;;5010761;28;20133;-68
2021/04/26 00:39:40;;;;;;;5.55;3.08;;;5.90;50.80;;;;;;5011429;28;20065;-67
2021/04/26 00:42:05;;;;;;;5.10;3.22;;;5.90;50.90;;;;;;5011617;28;20034;-68
2021/04/26 00:44:31;;;;;;;5.97;3.30;;;5.90;50.90;;;;;;5010516;28;20494;-67
2021/04/26 00:46:56;;;;;;;5.88;3.25;;;5.90;50.90;;;;;;5011425;28;20040;-68
2021/04/26 00:49:22;;;;;;;11.10;3.80;;;5.90;51.00;;;;;;5011835;28;20026;-68
2021/04/26 00:51:48;;;;;;;4.82;3.08;;;5.90;51.00;;;;;;5011844;28;20038;-67
2021/04/26 00:54:13;;;;;;;9.65;3.55;;;5.90;51.20;;;;;;5010162;28;20017;-66
2021/04/26 00:56:39;;;;;;;6.47;3.47;;;5.80;51.80;;;;;;5012157;28;20032;-68
2021/04/26 00:59:05;;;;;;;7.25;3.38;;;5.80;51.30;;;;;;5011484;28;20029;-71
2021/04/26 01:01:31;;;;;;;7.53;3.92;;;5.80;51.40;;;;;;5015343;28;20393;-67
2021/04/26 01:03:56;;;;;;;7.00;3.63;;;5.70;51.50;;;;;;4995055;28;20026;-68
2021/04/26 01:06:22;;;;;;;5.72;3.42;;;5.70;51.50;;;;;;5017860;28;20042;-69
2021/04/26 01:08:48;;;;;;;9.02;4.00;;;5.60;51.60;;;;;;4999060;28;20410;-68
2021/04/26 01:11:14;;;;;;;7.93;3.90;;;5.60;51.70;;;;;;5016295;28;20056;-69
2021/04/26 01:13:57;;;;;;;6.45;3.75;;;5.50;51.70;;;;;;5016726;28;20061;-66
2021/04/26 01:16:38;;;;;;;7.10;3.85;;;5.40;52.00;;;;;;5015907;28;20022;-69
2021/04/26 01:19:25;;;;;;;4.05;3.38;;;5.40;52.20;;;;;;4989575;28;20034;-69
2021/04/26 01:22:25;;;;;;;9.43;3.90;;;5.30;52.50;;;;;;5013844;28;20200;-71
2021/04/26 01:25:01;;;;;;;7.22;4.10;;;5.30;52.60;;;;;;5013745;28;20025;-69
2021/04/26 01:27:44;;;;;;;6.43;3.60;;;5.20;52.20;;;;;;5008220;28;20022;-70
2021/04/26 01:30:15;;;;;;;13.13;4.15;;;5.20;52.50;;;;;;5004741;28;20034;-66
2021/04/26 01:32:50;;;;;;;7.03;3.90;;;5.20;52.30;;;;;;4997630;28;20022;-67
2021/04/26 01:35:18;;;;;;;8.63;4.00;;;5.20;52.80;;;;;;4993082;28;20018;-67
2021/04/26 01:37:48;;;;;;;7.03;3.97;;;5.10;52.50;;;;;;5012334;28;20030;-65
2021/04/26 01:40:16;;;;;;;6.78;3.53;;;5.10;52.70;;;;;;4996089;28;20387;-68
2021/04/26 01:42:45;;;;;;;7.90;3.65;;;5.10;52.70;;;;;;5012591;28;20060;-69
2021/04/26 01:45:13;;;;;;;8.43;4.00;;;5.00;52.90;;;;;;5012169;28;20061;-69
2021/04/26 01:47:40;;;;;;;9.13;3.75;;;5.00;53.50;;;;;;5011290;28;20030;-66
2021/04/26 01:50:09;;;;;;;9.82;4.13;;;5.00;53.00;;;;;;5011096;28;20713;-69
2021/04/26 01:52:35;;;;;;;8.23;3.70;;;5.00;53.10;;;;;;5012573;28;20069;-68
2021/04/26 01:55:04;;;;;;;7.30;4.00;;;4.90;53.10;;;;;;4994128;28;20076;-69
2021/04/26 01:57:31;;;;;;;8.48;4.03;;;4.90;53.20;;;;;;5012364;28;20410;-69
2021/04/26 01:59:59;;;;;;;5.57;3.40;;;4.90;53.30;;;;;;4995093;28;20030;-69
2021/04/26 02:02:26;;;;;;;7.95;3.75;;;4.90;53.40;;;;;;4994906;28;20030;-69
2021/04/26 02:04:52;;;;;;;7.53;4.00;;;4.80;53.40;;;;;;5009971;28;20034;-69
2021/04/26 02:07:19;;;;;;;8.25;3.63;;;4.80;53.50;;;;;;5004896;28;20030;-69
2021/04/26 02:09:46;;;;;;;5.78;3.50;;;4.80;53.50;;;;;;5009627;28;20041;-67
2021/04/26 02:12:13;;;;;;;7.90;4.00;;;4.80;53.60;;;;;;5012134;28;20040;-68
2021/04/26 02:14:41;;;;;;;6.60;3.80;;;4.80;53.60;;;;;;5010336;28;20132;-65
2021/04/26 02:17:07;;;;;;;7.00;3.95;;;4.80;53.60;;;;;;5011333;28;20022;-69
2021/04/26 02:19:34;;;;;;;9.95;3.60;;;4.70;54.00;;;;;;4980340;28;20490;-66
2021/04/26 02:22:00;;;;;;;6.32;3.38;;;4.70;53.50;;;;;;5008216;28;20030;-68
2021/04/26 02:24:26;;;;;;;5.65;3.58;;;4.70;53.50;;;;;;5010016;28;20486;-69
2021/04/26 02:26:51;;;;;;;7.38;3.92;;;4.60;53.70;;;;;;5009488;28;20060;-69
2021/04/26 02:29:17;;;;;;;6.28;3.08;;;4.60;53.70;;;;;;5005411;28;20041;-69
2021/04/26 02:31:47;;;;;;;7.65;3.63;;;4.60;53.80;;;;;;5005759;28;20609;-69
2021/04/26 02:34:19;;;;;;;5.93;3.45;;;4.50;53.80;;;;;;5008518;28;20052;-69
2021/04/26 02:36:51;;;;;;;7.32;3.38;;;4.50;53.90;;;;;;5009818;28;20105;-69
2021/04/26 02:39:17;;;;;;;5.60;3.25;;;4.50;53.90;;;;;;5010128;28;20058;-69
2021/04/26 02:41:46;;;;;;;6.15;3.70;;;4.50;53.80;;;;;;5010018;28;20830;-69
2021/04/26 02:44:18;;;;;;;4.32;3.13;;;4.50;53.90;;;;;;5008545;28;20033;-69
2021/04/26 02:46:45;;;;;;;8.07;3.40;;;4.60;54.00;;;;;;4989175;28;20507;-65
2021/04/26 02:49:11;;;;;;;5.72;3.35;;;4.50;53.90;;;;;;5005946;28;20042;-69
2021/04/26 02:51:37;;;;;;;8.45;3.35;;;4.50;53.90;;;;;;5010395;28;20033;-68
2021/04/26 02:54:05;;;;;;;4.47;3.30;;;4.50;54.00;;;;;;5008641;28;20033;-69
2021/04/26 02:56:35;;;;;;;5.95;3.45;;;4.50;53.90;;;;;;5006067;28;20444;-65
2021/04/26 02:59:01;;;;;;;6.97;3.22;;;4.50;53.90;;;;;;5009812;28;20084;-68
2021/04/26 03:01:27;;;;;;;6.53;3.42;;;4.50;53.90;;;;;;5010262;28;20030;-68
2021/04/26 03:03:54;;;;;;;5.60;3.10;;;4.50;54.00;;;;;;5007987;28;20056;-67
2021/04/26 03:06:20;;;;;;;4.50;3.20;;;4.50;54.00;;;;;;5000700;28;20473;-69
2021/04/26 03:08:47;;;;;;;5.20;3.30;;;4.40;53.90;;;;;;5008738;28;20033;-71
2021/04/26 03:11:15;;;;;;;5.97;2.83;;;4.40;54.00;;;;;;5009697;28;20022;-69
2021/04/26 03:13:41;;;;;;;9.20;3.45;;;4.40;54.00;;;;;;5009843;28;20064;-69
2021/04/26 03:16:07;;;;;;;5.90;3.20;;;4.40;54.10;;;;;;4990791;28;20370;-70
2021/04/26 03:18:34;;;;;;;4.78;3.50;;;4.40;54.30;;;;;;5008912;28;20034;-65
2021/04/26 03:21:03;;;;;;;10.10;3.60;;;4.40;54.30;;;;;;4999265;28;20509;-67
2021/04/26 03:23:29;;;;;;;4.75;3.00;;;4.40;54.30;;;;;;5009919;28;20124;-69
2021/04/26 03:25:57;;;;;;;7.57;3.50;;;4.40;54.20;;;;;;4991348;28;20088;-69
2021/04/26 03:28:23;;;;;;;10.38;3.55;;;4.40;54.20;;;;;;4986085;28;20077;-70
2021/04/26 03:30:49;;;;;;;6.85;3.35;;;4.40;54.20;;;;;;5002529;28;20044;-70
2021/04/26 03:33:16;;;;;;;5.22;3.50;;;4.40;54.20;;;;;;5004450;28;20033;-69
2021/04/26 03:35:43;;;;;;;7.32;3.90;;;4.40;54.20;;;;;;5007688;28;20034;-68
2021/04/26 03:43:02;;;;;;;8.02;3.38;;;4.20;54.20;;;;;;5006176;28;20104;-69
2021/04/26 03:45:29;;;;;;;5.32;3.58;;;4.20;54.30;;;;;;5007930;28;20106;-69
2021/04/26 03:47:55;;;;;;;8.82;3.53;;;4.20;54.30;;;;;;5007784;28;20442;-69
2021/04/26 03:50:23;;;;;;;3.75;3.10;;;4.20;54.40;;;;;;5010255;28;20018;-68
2021/04/26 03:52:49;;;;;;;8.02;3.70;;;4.20;54.50;;;;;;5009038;28;20526;-69
2021/04/26 03:55:18;;;;;;;7.45;3.25;;;4.20;54.60;;;;;;5014551;28;20037;-69
2021/04/26 03:57:44;;;;;;;8.13;3.63;;;4.20;54.60;;;;;;5009369;28;20022;-68
2021/04/26 04:00:11;;;;;;;5.30;3.38;;;4.20;54.50;;;;;;5009963;28;20037;-68
2021/04/26 04:02:37;;;;;;;6.53;3.53;;;4.20;54.50;;;;;;5027395;28;20148;-68
2021/04/26 04:05:05;;;;;;;7.80;3.78;;;4.20;54.50;;;;;;5010696;28;20537;-69
2021/04/26 04:07:30;;;;;;;7.28;3.28;;;4.20;54.60;;;;;;5014669;28;20098;-68
2021/04/26 04:09:57;;;;;;;5.72;3.30;;;4.10;54.70;;;;;;5013687;28;20104;-69
2021/04/26 04:12:23;;;;;;;8.18;3.60;;;4.10;54.70;;;;;;5008682;28;20034;-69
2021/04/26 04:14:48;;;;;;;5.38;3.85;;;4.00;54.80;;;;;;5020556;28;20108;-68
2021/04/26 04:17:14;;;;;;;10.60;3.75;;;4.10;55.00;;;;;;5013241;28;20175;-69
2021/04/26 04:19:41;;;;;;;6.00;3.20;;;4.00;54.90;;;;;;5024177;28;20048;-68
2021/04/26 04:22:07;;;;;;;5.47;3.60;;;4.00;55.00;;;;;;5017713;28;20057;-69
2021/04/26 04:24:32;;;;;;;5.80;3.38;;;4.00;55.10;;;;;;5020328;28;20057;-69
2021/04/26 04:26:58;;;;;;;9.00;3.60;;;4.00;55.10;;;;;;5013134;28;20522;-68
2021/04/26 04:29:23;;;;;;;7.93;3.47;;;4.00;55.10;;;;;;5017178;28;20248;-69
2021/04/26 04:31:49;;;;;;;5.45;3.83;;;4.00;55.10;;;;;;5016794;28;20052;-68
2021/04/26 04:34:15;;;;;;;5.68;3.45;;;4.00;55.00;;;;;;5016167;28;20026;-68
2021/04/26 04:36:40;;;;;;;8.82;3.67;;;4.00;55.00;;;;;;5025468;28;20029;-69
2021/04/26 04:39:06;;;;;;;7.13;3.85;;;4.00;55.00;;;;;;5013414;28;20099;-69
2021/04/26 04:41:31;;;;;;;5.97;3.90;;;4.00;55.00;;;;;;5020987;28;20036;-68
2021/04/26 04:43:57;;;;;;;5.82;3.42;;;4.00;55.00;;;;;;4998716;28;20103;-68
2021/04/26 04:46:23;;;;;;;5.50;3.47;;;4.00;55.10;;;;;;5013371;28;20478;-69
2021/04/26 04:48:48;;;;;;;6.20;3.38;;;4.00;55.10;;;;;;5025505;28;20120;-69
2021/04/26 04:51:14;;;;;;;4.75;3.70;;;4.00;55.10;;;;;;5025914;28;20018;-68
2021/04/26 04:53:40;;;;;;;6.43;3.65;;;3.90;55.10;;;;;;5014359;28;20044;-69
2021/04/26 04:56:06;;;;;;;6.07;3.92;;;4.00;55.20;;;;;;5010831;28;20116;-68
2021/04/26 04:58:31;;;;;;;9.20;3.30;;;4.00;55.20;;;;;;5012636;28;20032;-68
2021/04/26 05:00:57;;;;;;;6.88;3.65;;;4.00;55.20;;;;;;5016252;28;20033;-68
2021/04/26 05:03:23;;;;;;;9.02;3.90;;;4.00;55.30;;;;;;5014721;28;20065;-68
2021/04/26 05:05:49;;;;;;;7.35;3.80;;;4.10;55.60;;;;;;5005619;28;20030;-70
2021/04/26 05:08:14;;;;;;;6.53;3.80;;;4.20;55.50;;;;;;5016821;28;20109;-68
2021/04/26 05:10:40;;;;;;;6.32;3.75;;;4.20;55.60;;;;;;5016859;28;20036;-68
2021/04/26 05:13:06;;;;;;;7.38;4.10;;;4.30;55.70;;;;;;5014155;28;20120;-68
2021/04/26 05:15:31;;;;;;;7.07;3.97;;;4.40;55.70;;;;;;5012116;28;20026;-68
2021/04/26 05:17:57;;;;;;;6.47;3.65;;;4.50;55.80;;;;;;5011968;28;20030;-68
2021/04/26 05:20:23;;;;;;;7.20;4.07;;;4.60;55.90;;;;;;5012691;28;20478;-68
2021/04/26 05:22:49;;;;;;;5.40;3.50;;;4.70;55.80;;;;;;5003616;28;20034;-68
2021/04/26 05:25:14;;;;;;;6.03;3.78;;;4.80;55.70;;;;;;4992537;28;20175;-69
2021/04/26 05:27:40;;;;;;;4.85;3.58;;;4.90;55.70;;;;;;5011113;28;20021;-68
2021/04/26 05:30:08;;;;;;;6.65;3.70;;;5.00;55.70;;;;;;5010918;28;20215;-68
2021/04/26 05:32:34;;;;;;;8.73;3.67;;;5.10;55.70;;;;;;4994528;28;20029;-68
2021/04/26 05:34:59;;;;;;;4.97;3.60;;;5.20;55.60;;;;;;5001817;28;20034;-68
2021/04/26 05:37:25;;;;;;;8.90;3.80;;;5.30;55.50;;;;;;4995564;28;20104;-68
2021/04/26 05:39:51;;;;;;;5.60;3.90;;;5.40;55.50;;;;;;5011591;28;20090;-69
2021/04/26 05:42:16;;;;;;;9.43;4.20;;;5.50;55.40;;;;;;5015898;28;20029;-68
2021/04/26 05:44:42;;;;;;;11.65;5.45;;;5.60;55.40;;;;;;5018230;28;20487;-70
2021/04/26 05:47:08;;;;;;;11.20;5.03;;;5.60;55.30;;;;;;5014263;28;20026;-69
2021/04/26 05:49:33;;;;;;;10.18;4.82;;;5.70;55.20;;;;;;4994056;28;20466;-69
2021/04/26 05:51:59;;;;;;;9.77;4.57;;;5.80;55.00;;;;;;5012373;28;20029;-68
2021/04/26 05:54:25;;;;;;;5.47;3.67;;;5.80;55.00;;;;;;5018091;28;20459;-68
2021/04/26 05:56:50;;;;;;;7.05;4.10;;;5.90;54.90;;;;;;4993711;28;20566;-68
2021/04/26 05:59:16;;;;;;;7.38;3.97;;;5.90;54.70;;;;;;4994755;28;20088;-68
2021/04/26 06:01:42;;;;;;;5.13;3.80;;;6.00;54.50;;;;;;5019096;28;20065;-69
2021/04/26 06:04:07;;;;;;;4.50;3.60;;;6.00;54.40;;;;;;5010975;28;20038;-68
2021/04/26 06:06:33;;;;;;;6.55;3.60;;;6.10;54.40;;;;;;4993481;28;20069;-68
2021/04/26 06:08:59;;;;;;;5.75;3.88;;;6.10;54.30;;;;;;5023384;28;20076;-68
2021/04/26 06:11:25;;;;;;;8.48;3.45;;;6.20;54.30;;;;;;5014086;28;20060;-68
2021/04/26 06:13:50;;;;;;;5.15;3.63;;;6.30;54.30;;;;;;5012115;28;20084;-69
2021/04/26 06:16:16;;;;;;;7.95;3.92;;;6.40;54.20;;;;;;5012724;28;20087;-69
2021/04/26 06:18:42;;;;;;;8.05;3.63;;;6.60;54.30;;;;;;5028877;28;20022;-69
2021/04/26 06:21:07;;;;;;;10.85;4.30;;;6.60;54.20;;;;;;5009737;28;20033;-69
2021/04/26 06:23:33;;;;;;;8.93;3.47;;;6.70;54.10;;;;;;5011282;28;20022;-68
2021/04/26 06:25:58;;;;;;;9.60;3.83;;;6.70;53.90;;;;;;5008848;28;20037;-68
2021/04/26 06:28:24;;;;;;;7.57;3.63;;;6.80;53.80;;;;;;5002440;28;20033;-69
2021/04/26 06:30:50;;;;;;;7.50;3.83;;;6.80;53.60;;;;;;5008720;28;20070;-68
2021/04/26 06:33:16;;;;;;;8.10;3.65;;;7.00;53.60;;;;;;5011022;28;20490;-68
2021/04/26 06:35:46;;;;;;;5.85;3.72;;;7.00;53.40;;;;;;5009742;28;20036;-69
2021/04/26 06:38:12;;;;;;;7.57;4.07;;;7.20;53.40;;;;;;5010704;28;20034;-69
2021/04/26 06:40:39;;;;;;;6.30;3.97;;;7.50;53.00;;;;;;5010131;28;20436;-68
2021/04/26 06:43:05;;;;;;;7.88;3.75;;;7.80;52.70;;;;;;4992969;28;20037;-69
2021/04/26 06:45:31;;;;;;;5.60;3.38;;;8.00;52.50;;;;;;5009437;28;20049;-68
2021/04/26 06:47:56;;;;;;;8.68;4.13;;;8.20;52.10;;;;;;5010547;28;20030;-69
2021/04/26 06:50:23;;;;;;;8.27;3.78;;;8.50;51.90;;;;;;5009017;28;20061;-69
2021/04/26 06:52:50;;;;;;;6.70;3.55;;;8.90;51.60;;;;;;5004379;28;20493;-69
2021/04/26 06:55:17;;;;;;;7.05;3.78;;;9.20;51.30;;;;;;4990758;28;20037;-68
2021/04/26 06:57:43;;;;;;;5.88;3.58;;;9.50;50.70;;;;;;5009823;28;20108;-69
2021/04/26 07:00:10;;;;;;;7.38;3.67;;;9.70;50.40;;;;;;5010130;28;20448;-68
2021/04/26 07:02:36;;;;;;;5.32;3.40;;;10.00;50.00;;;;;;5007236;28;20029;-68
2021/04/26 07:05:03;;;;;;;5.57;3.42;;;10.20;49.70;;;;;;5006898;28;20026;-67
2021/04/26 07:07:29;;;;;;;6.82;3.63;;;10.50;49.60;;;;;;5009321;28;20105;-68
2021/04/26 07:09:54;;;;;;;6.38;3.33;;;10.50;49.20;;;;;;5008973;28;20034;-68
2021/04/26 07:12:20;;;;;;;8.25;3.83;;;10.50;49.30;;;;;;4999026;28;20471;-69
2021/04/26 07:14:46;;;;;;;6.45;3.47;;;10.40;49.30;;;;;;4994329;28;20045;-68
2021/04/26 07:17:12;;;;;;;7.93;3.78;;;10.30;49.60;;;;;;4986149;28;20022;-68
2021/04/26 07:19:37;;;;;;;6.32;3.38;;;10.30;49.90;;;;;;4993291;28;20014;-69
2021/04/26 07:22:03;;;;;;;3.90;3.20;;;10.40;49.90;;;;;;5017925;28;20481;-69
2021/04/26 07:24:29;;;;;;;10.25;3.55;;;10.50;50.10;;;;;;5010176;28;20377;-69
2021/04/26 07:26:55;;;;;;;4.97;3.45;;;10.70;49.90;;;;;;5006709;28;20037;-69
2021/04/26 07:29:21;;;;;;;6.95;3.30;;;10.90;49.80;;;;;;5010500;28;20032;-68
2021/04/26 07:31:46;;;;;;;6.13;3.60;;;11.10;49.60;;;;;;5009412;28;20111;-68
2021/04/26 07:34:12;;;;;;;4.57;3.47;;;11.30;49.20;;;;;;4991491;28;20037;-68
2021/04/26 07:36:37;;;;;;;6.72;3.72;;;11.40;48.90;;;;;;5009976;28;20026;-68
2021/04/26 07:39:04;;;;;;;10.68;4.50;;;12.00;48.10;;;;;;4992306;28;20026;-68
2021/04/26 07:41:30;;;;;;;5.53;3.50;;;12.50;47.10;;;;;;5003211;28;20080;-68
2021/04/26 07:43:56;;;;;;;4.85;3.25;;;13.20;46.10;;;;;;5008735;28;20034;-67
2021/04/26 07:46:22;;;;;;;7.97;3.38;;;13.90;45.10;;;;;;5010146;28;20037;-68
2021/04/26 07:48:48;;;;;;;6.03;3.65;;;14.60;43.70;;;;;;4990242;28;20030;-71
2021/04/26 07:51:13;;;;;;;5.68;3.10;;;15.10;42.70;;;;;;5010033;28;20069;-69
2021/04/26 07:53:39;;;;;;;7.15;3.17;;;15.60;41.70;;;;;;5011538;28;20025;-69
2021/04/26 07:56:04;;;;;;;7.47;3.75;;;16.10;41.20;;;;;;5011305;28;20021;-69
2021/04/26 07:58:30;;;;;;;11.02;6.82;;;16.50;40.60;;;;;;5013638;28;20033;-69
2021/04/26 08:00:57;;;;;;;8.52;3.60;;;17.00;39.90;;;;;;5013371;28;20657;-69
2021/04/26 08:03:23;;;;;;;6.78;3.63;;;17.40;39.20;;;;;;5013667;28;20477;-68
2021/04/26 08:05:49;;;;;;;6.32;3.50;;;17.80;38.70;;;;;;5012246;28;20032;-69
2021/04/26 08:08:14;;;;;;;6.53;3.47;;;18.30;38.20;;;;;;5013298;28;20053;-69
2021/04/26 08:10:40;;;;;;;4.18;3.47;;;18.70;37.70;;;;;;5012940;28;20033;-70
2021/04/26 08:13:07;;;;;;;5.40;3.50;;;19.00;37.20;;;;;;5012513;28;20065;-69
2021/04/26 08:15:33;;;;;;;7.32;3.45;;;19.40;36.40;;;;;;5012987;28;20025;-70
2021/04/26 08:17:58;;;;;;;5.43;3.05;;;19.70;36.10;;;;;;4997741;28;20029;-69
2021/04/26 08:20:24;;;;;;;7.00;3.47;;;20.00;35.80;;;;;;5015913;28;20083;-69
2021/04/26 08:22:49;;;;;;;5.10;3.47;;;20.30;35.50;;;;;;5017409;28;20681;-68
2021/04/26 08:25:15;;;;;;;8.35;3.22;;;20.60;34.80;;;;;;5020493;28;20120;-69
2021/04/26 08:27:41;;;;;;;5.05;3.00;;;20.80;34.50;;;;;;5010341;28;20037;-67
2021/04/26 08:30:08;;;;;;;5.15;3.10;;;21.10;34.00;;;;;;5015869;28;20486;-69
2021/04/26 08:32:35;;;;;;;5.78;3.88;;;21.40;33.40;;;;;;5024144;28;20477;-68
2021/04/26 08:35:01;;;;;;;7.53;3.25;;;21.50;33.10;;;;;;5010895;28;20403;-70
2021/04/26 08:37:27;;;;;;;6.70;3.53;;;21.70;32.90;;;;;;5018824;28;20026;-68
2021/04/26 08:39:52;;;;;;;7.53;3.58;;;22.00;32.60;;;;;;5013604;28;20106;-69
2021/04/26 08:42:19;;;;;;;6.65;3.33;;;22.30;32.10;;;;;;5012776;28;20441;-67
2021/04/26 08:44:45;;;;;;;4.97;3.30;;;22.50;32.10;;;;;;5011662;28;20108;-70
2021/04/26 08:47:11;;;;;;;5.70;3.20;;;22.50;32.20;;;;;;5016943;28;20483;-70
2021/04/26 08:49:37;;;;;;;6.18;3.40;;;22.90;32.00;;;;;;5020012;28;20060;-71
2021/04/26 08:52:04;;;;;;;5.68;3.38;;;23.40;32.20;;;;;;5024613;28;20518;-71
2021/04/26 08:54:30;;;;;;;6.60;3.65;;;23.60;30.90;;;;;;5010842;28;20041;-71
2021/04/26 08:56:56;;;;;;;4.80;3.15;;;23.90;30.60;;;;;;5014601;28;20030;-70
2021/04/26 08:59:22;;;;;;;5.10;3.13;;;24.00;30.40;;;;;;5013390;28;20470;-70
2021/04/26 09:01:57;;;;;;;6.25;3.10;;;24.20;30.20;;;;;;5013360;28;20061;-69
2021/04/26 09:04:23;;;;;;;6.57;3.25;;;24.20;30.00;;;;;;5002370;28;20471;-70
2021/04/26 09:07:02;;;;;;;6.18;3.63;;;24.20;30.20;;;;;;5012241;28;20038;-69
2021/04/26 09:09:52;;;;;;;4.80;2.97;;;24.50;30.00;;;;;;5013134;28;20029;-69
2021/04/26 09:12:27;;;;;;;7.50;3.20;;;24.70;29.80;;;;;;5012570;28;20571;-70
2021/04/26 09:14:55;;;;;;;10.00;4.35;;;24.80;29.50;;;;;;4995257;28;20049;-69
2021/04/26 09:17:34;;;;;;;6.28;2.95;;;25.00;29.50;;;;;;5012203;28;20050;-69
2021/04/26 09:20:15;;;;;;;8.45;3.60;;;25.00;28.90;;;;;;5012489;28;20040;-69
2021/04/26 09:23:01;;;;;;;8.02;2.90;;;25.00;29.20;;;;;;5011952;28;20431;-69
2021/04/26 09:25:40;;;;;;;7.60;3.35;;;25.10;29.40;;;;;;5011185;28;20041;-70
2021/04/26 09:28:08;;;;;;;4.53;3.10;;;25.30;29.20;;;;;;5009805;28;20088;-70
2021/04/26 09:30:43;;;;;;;5.63;3.00;;;25.60;28.80;;;;;;5013638;28;20413;-70
2021/04/26 09:33:34;;;;;;;4.72;3.05;;;25.60;28.70;;;;;;5012506;28;20105;-70
2021/04/26 09:36:16;;;;;;;5.53;2.80;;;25.60;28.70;;;;;;4987275;28;20401;-70
2021/04/26 09:38:53;;;;;;;5.93;3.30;;;25.70;28.10;;;;;;5009421;23;20025;-68
2021/04/26 09:41:25;;;;;;;8.35;3.38;;;25.80;28.70;;;;;;5029483;28;20456;-71
2021/04/26 09:43:59;;;;;;;5.00;3.50;;;25.90;28.20;;;;;;5030687;28;20033;-72
2021/04/26 09:46:41;;;;;;;6.80;3.20;;;25.70;28.40;;;;;;5030851;28;20025;-73
2021/04/26 09:49:11;;;;;;;5.40;3.55;;;25.60;28.20;;;;;;5021570;28;20108;-67
2021/04/26 09:51:36;;;;;;;8.43;3.90;;;25.50;28.10;;;;;;5028111;28;20033;-67
2021/04/26 09:54:02;;;;;;;10.45;3.47;;;25.30;28.20;;;;;;5027500;28;20025;-71
2021/04/26 09:56:30;;;;;;;5.32;3.38;;;25.00;28.10;;;;;;5031553;28;20030;-66
2021/04/26 09:59:02;;;;;;;3.97;3.05;;;24.70;28.10;;;;;;5030587;28;20397;-67
2021/04/26 10:01:28;;;;;;;5.38;3.25;;;24.40;28.00;;;;;;5040172;28;20032;-70
2021/04/26 10:03:54;;;;;;;3.85;3.00;;;24.00;28.20;;;;;;5036007;28;20375;-70
2021/04/26 10:06:20;;;;;;;6.00;3.30;;;23.60;28.30;;;;;;5031060;28;20039;-66
2021/04/26 10:08:52;;;;;;;8.98;3.17;;;23.40;28.60;;;;;;5030462;28;20486;-67
2021/04/26 10:11:19;;;;;;;4.75;3.22;;;23.20;28.80;;;;;;5034968;28;20026;-71
2021/04/26 10:13:46;;;;;;;3.42;3.00;;;22.90;29.20;;;;;;5031084;28;20033;-67
2021/04/26 10:16:16;;;;;;;9.10;2.80;;;22.70;29.00;;;;;;5028689;28;20112;-68
2021/04/26 10:18:43;;;;;;;4.47;2.75;;;22.60;29.60;;;;;;5028745;28;20041;-71
2021/04/26 10:21:18;;;;;;;5.13;2.78;;;22.60;29.40;;;;;;5031020;28;20531;-66
2021/04/26 10:23:45;;;;;;;8.20;2.97;;;22.40;28.80;;;;;;5030683;28;20030;-66
2021/04/26 10:26:40;;;;;;;4.45;3.20;;;22.20;29.10;;;;;;5030079;28;20017;-67
2021/04/26 10:29:13;;;;;;;5.43;3.75;;;21.80;29.00;;;;;;5021384;28;20125;-66
2021/04/26 10:32:00;;;;;;;4.72;3.10;;;21.50;29.10;;;;;;5030505;28;20022;-68
2021/04/26 10:34:34;;;;;;;6.10;3.08;;;21.20;29.80;;;;;;5029194;28;20042;-66
2021/04/26 10:37:25;;;;;;;6.03;3.50;;;21.20;29.80;;;;;;5030313;28;20090;-69
2021/04/26 10:40:00;;;;;;;9.05;6.40;;;21.10;30.00;;;;;;5028139;28;20346;-66
2021/04/26 10:42:32;;;;;;;4.10;2.90;;;21.20;30.20;;;;;;5029957;28;20033;-66
2021/04/26 10:44:59;;;;;;;4.57;2.65;;;21.10;29.80;;;;;;5029387;28;20061;-65
2021/04/26 10:47:30;;;;;;;3.85;2.85;;;21.00;29.60;;;;;;5029203;28;20485;-65
2021/04/26 10:49:59;;;;;;;;;;;20.70;29.60;;;;;;5030984;28;20112;-66
2021/04/26 10:52:30;;;;;;;6.18;2.90;;;20.50;30.20;;;;;;5029366;28;19908;-66
2021/04/26 10:54:57;;;;;;;4.60;3.17;;;20.30;30.20;;;;;;5030907;28;20029;-66
2021/04/26 10:57:33;;;;;;;4.75;2.85;;;20.30;30.20;;;;;;5025688;28;20108;-70
2021/04/26 11:00:21;;;;;;;5.50;3.28;;;20.20;30.00;;;;;;5026590;28;20183;-69
2021/04/26 11:02:47;;;;;;;5.55;3.55;;;20.00;29.70;;;;;;5030491;28;20482;-66
2021/04/26 11:05:22;;;;;;;7.18;3.47;;;19.80;29.80;;;;;;5049077;28;20064;-69
2021/04/26 11:07:54;;;;;;;6.72;3.28;;;19.60;29.80;;;;;;5019792;28;20044;-68
2021/04/26 11:10:29;;;;;;;4.93;3.15;;;19.50;30.00;;;;;;5013636;28;20022;-67
2021/04/26 11:12:56;;;;;;;5.00;3.58;;;19.50;30.50;;;;;;5029923;28;20036;-67
2021/04/26 11:15:24;;;;;;;5.82;3.10;;;19.40;30.20;;;;;;5021282;28;20028;-68
2021/04/26 11:17:50;;;;;;;4.75;3.05;;;19.40;30.90;;;;;;5014862;28;20101;-66
2021/04/26 11:20:24;;;;;;;8.68;3.03;;;19.50;30.80;;;;;;5001552;28;20025;-69
2021/04/26 11:22:56;;;;;;;5.32;2.80;;;19.40;30.50;;;;;;5029863;28;20028;-66
2021/04/26 11:25:34;;;;;;;6.45;3.45;;;19.40;31.10;;;;;;5031115;28;20490;-68
2021/04/26 11:28:01;;;;;;;5.03;3.25;;;19.50;32.00;;;;;;5026135;28;20021;-67
2021/04/26 11:30:37;;;;;;;5.90;3.35;;;19.50;31.90;;;;;;5034006;28;20493;-69
2021/04/26 11:33:06;;;;;;;3.95;3.20;;;19.50;31.80;;;;;;5032450;28;20033;-66
2021/04/26 11:35:33;;;;;;;6.15;3.60;;;19.50;31.80;;;;;;5032508;28;20029;-67
2021/04/26 11:37:59;;;;;;;6.78;3.35;;;19.50;32.00;;;;;;5017139;28;20025;-67
2021/04/26 11:40:27;;;;;;;5.78;3.30;;;19.50;31.90;;;;;;5030968;28;20040;-67
2021/04/26 11:43:02;;;;;;;4.50;3.05;;;19.40;32.30;;;;;;5033486;28;20501;-66
2021/04/26 11:45:28;;;;;;;6.65;3.17;;;19.50;32.90;;;;;;5025163;28;20049;-65
2021/04/26 11:47:53;;;;;;;5.75;3.08;;;19.50;33.10;;;;;;5033101;28;20543;-65
2021/04/26 11:50:19;;;;;;;8.13;3.55;;;19.50;32.70;;;;;;5033041;28;20032;-66
2021/04/26 11:52:44;;;;;;;8.60;3.17;;;19.60;32.50;;;;;;5032616;28;20032;-71
2021/04/26 11:55:17;;;;;;;5.03;3.10;;;19.60;32.40;;;;;;5032570;28;20036;-66
2021/04/26 11:57:50;;;;;;;5.03;2.88;;;19.50;32.20;;;;;;5010139;28;20422;-67
2021/04/26 12:00:27;;;;;;;4.15;2.75;;;19.40;32.70;;;;;;5031442;28;20037;-66
2021/04/26 12:03:01;;;;;;;4.90;3.10;;;19.40;32.60;;;;;;5033392;28;20036;-65
2021/04/26 12:05:27;;;;;;;6.53;3.03;;;19.40;32.50;;;;;;5013224;28;20033;-65
2021/04/26 12:07:54;;;;;;;5.88;3.25;;;19.50;32.70;;;;;;5023003;28;20389;-66
2021/04/26 12:10:22;;;;;;;6.93;3.58;;;19.50;32.40;;;;;;5033007;28;20029;-67
2021/04/26 12:12:52;;;;;;;5.53;3.10;;;19.50;32.70;;;;;;5032696;28;20036;-66
2021/04/26 12:15:21;;;;;;;5.72;2.90;;;19.50;32.40;;;;;;5012824;28;20406;-68
2021/04/26 12:17:54;;;;;;;7.15;3.35;;;19.50;32.30;;;;;;5021952;28;20083;-66
2021/04/26 12:20:26;;;;;;;5.43;2.97;;;19.40;32.10;;;;;;5034056;28;20426;-66
2021/04/26 12:22:55;;;;;;;4.90;3.10;;;19.30;32.00;;;;;;5032971;28;20474;-66
2021/04/26 12:25:23;;;;;;;6.60;2.70;;;19.20;32.30;;;;;;5032229;28;20063;-66
2021/04/26 12:27:58;;;;;;;7.97;2.90;;;19.10;32.70;;;;;;5032517;28;20064;-66
2021/04/26 12:30:24;;;;;;;7.05;2.85;;;19.10;32.50;;;;;;5040303;28;20457;-66
2021/04/26 12:32:50;;;;;;;4.35;2.67;;;19.20;32.70;;;;;;5048217;28;20030;-65
2021/04/26 12:35:23;;;;;;;4.70;2.75;;;19.20;32.80;;;;;;5032302;28;20029;-66
2021/04/26 12:37:50;;;;;;;6.93;2.63;;;19.40;32.60;;;;;;5031907;28;20029;-67
2021/04/26 12:40:27;;;;;;;3.50;2.67;;;19.40;32.30;;;;;;5010633;28;20136;-67
2021/04/26 12:42:52;;;;;;;5.50;2.97;;;19.40;31.90;;;;;;5032628;28;20021;-67
2021/04/26 12:45:24;;;;;;;49.88;34.92;;;19.30;31.60;;;;;;5032120;28;20021;-66
2021/04/26 12:47:55;;;;;;;5.70;4.25;;;19.30;32.70;;;;;;5032747;28;20409;-66
2021/04/26 12:50:28;;;;;;;5.78;2.92;;;19.40;31.70;;;;;;5030523;28;20022;-66
2021/04/26 12:53:05;;;;;;;6.32;2.92;;;19.40;31.80;;;;;;5031682;28;20033;-65
2021/04/26 12:55:32;;;;;;;6.72;2.88;;;19.50;32.00;;;;;;5029806;28;20021;-66
2021/04/26 12:58:12;;;;;;;7.22;3.20;;;19.50;31.90;;;;;;5034226;28;20113;-66
2021/04/26 13:00:44;;;;;;;5.40;3.20;;;19.50;31.80;;;;;;5034624;28;20029;-66
2021/04/26 13:03:33;;;;;;;6.65;2.75;;;19.40;31.60;;;;;;5032514;28;20017;-66